sensor_id;sensor_type;location;lat;lon;timestamp;P1;durP1;ratioP1;P2;durP2;ratioP2
22573;SDS011;11453;52.052;20.430;2022-07-05T00:01:01;17.30;;;13.95;;
22573;SDS011;11453;52.052;20.430;2022-07-05T00:03:27;15.93;;;13.88;;
22573;SDS011;11453;52.052;20.430;2022-07-05T00:05:53;17.20;;;13.95;;
22573;SDS011;11453;52.052;20.430;2022-07-05T00:08:20;16.38;;;13.80;;
22573;SDS011;11453;52.052;20.430;2022-07-05T00:10:46;16.80;;;13.07;;
22573;SDS011;11453;52.052;20.430;2022-07-05T00:13:12;15.98;;;13.13;;
22573;SDS011;11453;52.052;20.430;2022-07-05T00:15:38;15.30;;;12.95;;
22573;SDS011;11453;52.052;20.430;2022-07-05T00:18:04;15.25;;;13.40;;
22573;SDS011;11453;52.052;20.430;2022-07-05T00:20:29;14.40;;;12.27;;
22573;SDS011;11453;52.052;20.430;2022-07-05T00:22:55;15.25;;;12.70;;
22573;SDS011;11453;52.052;20.430;2022-07-05T00:25:21;15.40;;;11.75;;
22573;SDS011;11453;52.052;20.430;2022-07-05T00:27:46;15.38;;;12.27;;
22573;SDS011;11453;52.052;20.430;2022-07-05T00:30:12;14.90;;;11.98;;
22573;SDS011;11453;52.052;20.430;2022-07-05T00:32:38;15.18;;;12.35;;
22573;SDS011;11453;52.052;20.430;2022-07-05T00:35:04;14.95;;;12.07;;
22573;SDS011;11453;52.052;20.430;2022-07-05T00:37:31;13.40;;;11.98;;
22573;SDS011;11453;52.052;20.430;2022-07-05T00:39:56;14.02;;;11.85;;
22573;SDS011;11453;52.052;20.430;2022-07-05T00:42:22;16.13;;;12.63;;
22573;SDS011;11453;52.052;20.430;2022-07-05T00:44:47;14.57;;;12.07;;
22573;SDS011;11453;52.052;20.430;2022-07-05T00:47:13;15.18;;;12.25;;
22573;SDS011;11453;52.052;20.430;2022-07-05T00:49:39;14.98;;;12.52;;
22573;SDS011;11453;52.052;20.430;2022-07-05T00:52:06;13.60;;;11.82;;
22573;SDS011;11453;52.052;20.430;2022-07-05T00:54:33;14.70;;;11.88;;
22573;SDS011;11453;52.052;20.430;2022-07-05T00:57:00;14.05;;;12.05;;
22573;SDS011;11453;52.052;20.430;2022-07-05T00:59:27;16.58;;;13.45;;
22573;SDS011;11453;52.052;20.430;2022-07-05T01:01:53;14.45;;;12.85;;
22573;SDS011;11453;52.052;20.430;2022-07-05T01:04:19;13.82;;;12.20;;
22573;SDS011;11453;52.052;20.430;2022-07-05T01:06:47;15.70;;;13.02;;
22573;SDS011;11453;52.052;20.430;2022-07-05T01:09:15;13.82;;;12.23;;
22573;SDS011;11453;52.052;20.430;2022-07-05T01:11:43;16.02;;;12.88;;
22573;SDS011;11453;52.052;20.430;2022-07-05T01:14:11;15.95;;;13.25;;
22573;SDS011;11453;52.052;20.430;2022-07-05T01:16:40;15.27;;;13.07;;
22573;SDS011;11453;52.052;20.430;2022-07-05T01:19:06;13.95;;;12.35;;
22573;SDS011;11453;52.052;20.430;2022-07-05T01:21:39;16.05;;;12.57;;
22573;SDS011;11453;52.052;20.430;2022-07-05T01:24:06;15.38;;;12.43;;
22573;SDS011;11453;52.052;20.430;2022-07-05T01:26:37;14.15;;;12.63;;
22573;SDS011;11453;52.052;20.430;2022-07-05T01:29:04;15.27;;;12.55;;
22573;SDS011;11453;52.052;20.430;2022-07-05T01:31:30;17.70;;;11.77;;
22573;SDS011;11453;52.052;20.430;2022-07-05T01:33:55;13.27;;;11.35;;
22573;SDS011;11453;52.052;20.430;2022-07-05T01:36:21;15.73;;;11.90;;
22573;SDS011;11453;52.052;20.430;2022-07-05T01:38:47;16.55;;;11.38;;
22573;SDS011;11453;52.052;20.430;2022-07-05T01:41:14;14.35;;;11.30;;
22573;SDS011;11453;52.052;20.430;2022-07-05T01:43:40;14.88;;;11.30;;
22573;SDS011;11453;52.052;20.430;2022-07-05T01:46:06;16.45;;;10.85;;
22573;SDS011;11453;52.052;20.430;2022-07-05T01:48:34;14.70;;;11.00;;
22573;SDS011;11453;52.052;20.430;2022-07-05T01:51:03;15.85;;;10.82;;
22573;SDS011;11453;52.052;20.430;2022-07-05T01:53:31;12.85;;;10.80;;
22573;SDS011;11453;52.052;20.430;2022-07-05T01:56:01;15.40;;;10.18;;
22573;SDS011;11453;52.052;20.430;2022-07-05T01:58:28;14.55;;;10.35;;
22573;SDS011;11453;52.052;20.430;2022-07-05T02:00:55;14.05;;;10.13;;
22573;SDS011;11453;52.052;20.430;2022-07-05T02:03:22;14.68;;;10.50;;
22573;SDS011;11453;52.052;20.430;2022-07-05T02:05:48;14.48;;;10.18;;
22573;SDS011;11453;52.052;20.430;2022-07-05T02:08:14;14.20;;;10.30;;
22573;SDS011;11453;52.052;20.430;2022-07-05T02:10:42;14.90;;;9.60;;
22573;SDS011;11453;52.052;20.430;2022-07-05T02:13:08;12.30;;;10.00;;
22573;SDS011;11453;52.052;20.430;2022-07-05T02:15:35;13.93;;;9.93;;
22573;SDS011;11453;52.052;20.430;2022-07-05T02:18:03;11.27;;;9.77;;
22573;SDS011;11453;52.052;20.430;2022-07-05T02:20:30;15.23;;;9.57;;
22573;SDS011;11453;52.052;20.430;2022-07-05T02:22:57;14.95;;;9.80;;
22573;SDS011;11453;52.052;20.430;2022-07-05T02:25:23;12.57;;;9.57;;
22573;SDS011;11453;52.052;20.430;2022-07-05T02:27:49;18.40;;;9.90;;
22573;SDS011;11453;52.052;20.430;2022-07-05T02:30:15;10.93;;;9.18;;
22573;SDS011;11453;52.052;20.430;2022-07-05T02:32:41;10.73;;;8.80;;
22573;SDS011;11453;52.052;20.430;2022-07-05T02:35:07;14.55;;;9.52;;
22573;SDS011;11453;52.052;20.430;2022-07-05T02:37:34;14.98;;;9.60;;
22573;SDS011;11453;52.052;20.430;2022-07-05T02:40:01;11.88;;;9.60;;
22573;SDS011;11453;52.052;20.430;2022-07-05T02:42:27;13.95;;;9.27;;
22573;SDS011;11453;52.052;20.430;2022-07-05T02:44:53;13.45;;;9.38;;
22573;SDS011;11453;52.052;20.430;2022-07-05T02:47:18;13.05;;;9.07;;
22573;SDS011;11453;52.052;20.430;2022-07-05T02:49:44;14.05;;;9.52;;
22573;SDS011;11453;52.052;20.430;2022-07-05T02:52:10;12.52;;;8.60;;
22573;SDS011;11453;52.052;20.430;2022-07-05T02:54:35;11.90;;;8.57;;
22573;SDS011;11453;52.052;20.430;2022-07-05T02:57:01;12.93;;;8.68;;
22573;SDS011;11453;52.052;20.430;2022-07-05T02:59:27;12.13;;;9.18;;
22573;SDS011;11453;52.052;20.430;2022-07-05T03:01:52;12.85;;;8.23;;
22573;SDS011;11453;52.052;20.430;2022-07-05T03:04:18;11.07;;;8.52;;
22573;SDS011;11453;52.052;20.430;2022-07-05T03:06:44;10.75;;;8.15;;
22573;SDS011;11453;52.052;20.430;2022-07-05T03:09:09;11.98;;;8.35;;
22573;SDS011;11453;52.052;20.430;2022-07-05T03:11:35;12.63;;;8.57;;
22573;SDS011;11453;52.052;20.430;2022-07-05T03:14:01;12.35;;;8.35;;
22573;SDS011;11453;52.052;20.430;2022-07-05T03:16:27;11.05;;;8.63;;
22573;SDS011;11453;52.052;20.430;2022-07-05T03:18:54;12.50;;;8.70;;
22573;SDS011;11453;52.052;20.430;2022-07-05T03:21:19;11.18;;;7.88;;
22573;SDS011;11453;52.052;20.430;2022-07-05T03:23:45;11.70;;;8.15;;
22573;SDS011;11453;52.052;20.430;2022-07-05T03:26:11;10.90;;;8.05;;
22573;SDS011;11453;52.052;20.430;2022-07-05T03:28:36;11.68;;;8.32;;
22573;SDS011;11453;52.052;20.430;2022-07-05T03:31:02;12.35;;;8.25;;
22573;SDS011;11453;52.052;20.430;2022-07-05T03:33:27;11.85;;;8.18;;
22573;SDS011;11453;52.052;20.430;2022-07-05T03:35:53;10.85;;;8.57;;
22573;SDS011;11453;52.052;20.430;2022-07-05T03:38:19;14.13;;;8.40;;
22573;SDS011;11453;52.052;20.430;2022-07-05T03:40:44;13.60;;;8.68;;
22573;SDS011;11453;52.052;20.430;2022-07-05T03:43:10;11.98;;;8.60;;
22573;SDS011;11453;52.052;20.430;2022-07-05T03:45:35;10.52;;;7.50;;
22573;SDS011;11453;52.052;20.430;2022-07-05T03:48:01;11.43;;;8.43;;
22573;SDS011;11453;52.052;20.430;2022-07-05T03:50:27;13.45;;;9.32;;
22573;SDS011;11453;52.052;20.430;2022-07-05T03:52:53;13.70;;;7.80;;
22573;SDS011;11453;52.052;20.430;2022-07-05T03:55:19;10.63;;;7.78;;
22573;SDS011;11453;52.052;20.430;2022-07-05T03:57:44;14.77;;;8.18;;
22573;SDS011;11453;52.052;20.430;2022-07-05T04:00:10;11.70;;;7.45;;
22573;SDS011;11453;52.052;20.430;2022-07-05T04:02:37;9.07;;;7.78;;
22573;SDS011;11453;52.052;20.430;2022-07-05T04:05:02;9.95;;;8.10;;
22573;SDS011;11453;52.052;20.430;2022-07-05T04:07:29;11.38;;;8.15;;
22573;SDS011;11453;52.052;20.430;2022-07-05T04:09:54;11.65;;;8.40;;
22573;SDS011;11453;52.052;20.430;2022-07-05T04:12:20;10.98;;;8.30;;
22573;SDS011;11453;52.052;20.430;2022-07-05T04:14:46;13.35;;;8.07;;
22573;SDS011;11453;52.052;20.430;2022-07-05T04:17:11;11.45;;;7.68;;
22573;SDS011;11453;52.052;20.430;2022-07-05T04:19:37;11.48;;;7.80;;
22573;SDS011;11453;52.052;20.430;2022-07-05T04:22:03;12.43;;;7.68;;
22573;SDS011;11453;52.052;20.430;2022-07-05T04:24:28;9.70;;;7.30;;
22573;SDS011;11453;52.052;20.430;2022-07-05T04:26:54;11.13;;;7.50;;
22573;SDS011;11453;52.052;20.430;2022-07-05T04:29:20;12.63;;;7.25;;
22573;SDS011;11453;52.052;20.430;2022-07-05T04:31:45;11.35;;;6.80;;
22573;SDS011;11453;52.052;20.430;2022-07-05T04:34:11;9.27;;;5.75;;
22573;SDS011;11453;52.052;20.430;2022-07-05T04:36:37;11.38;;;6.63;;
22573;SDS011;11453;52.052;20.430;2022-07-05T04:39:05;10.55;;;6.60;;
22573;SDS011;11453;52.052;20.430;2022-07-05T04:41:33;9.38;;;6.35;;
22573;SDS011;11453;52.052;20.430;2022-07-05T04:43:59;10.93;;;5.85;;
22573;SDS011;11453;52.052;20.430;2022-07-05T04:46:24;11.57;;;7.13;;
22573;SDS011;11453;52.052;20.430;2022-07-05T04:48:50;11.30;;;6.13;;
22573;SDS011;11453;52.052;20.430;2022-07-05T04:51:16;11.23;;;5.82;;
22573;SDS011;11453;52.052;20.430;2022-07-05T04:53:42;13.68;;;6.20;;
22573;SDS011;11453;52.052;20.430;2022-07-05T04:56:08;11.50;;;5.40;;
22573;SDS011;11453;52.052;20.430;2022-07-05T04:58:33;10.18;;;5.25;;
22573;SDS011;11453;52.052;20.430;2022-07-05T05:01:00;10.02;;;4.65;;
22573;SDS011;11453;52.052;20.430;2022-07-05T05:03:25;10.05;;;5.43;;
22573;SDS011;11453;52.052;20.430;2022-07-05T05:05:51;11.20;;;5.85;;
22573;SDS011;11453;52.052;20.430;2022-07-05T05:08:16;11.50;;;5.40;;
22573;SDS011;11453;52.052;20.430;2022-07-05T05:10:42;9.75;;;5.00;;
22573;SDS011;11453;52.052;20.430;2022-07-05T05:13:08;8.27;;;4.88;;
22573;SDS011;11453;52.052;20.430;2022-07-05T05:15:33;7.03;;;4.75;;
22573;SDS011;11453;52.052;20.430;2022-07-05T05:17:59;7.68;;;4.63;;
22573;SDS011;11453;52.052;20.430;2022-07-05T05:20:25;7.47;;;4.70;;
22573;SDS011;11453;52.052;20.430;2022-07-05T05:22:51;7.72;;;5.03;;
22573;SDS011;11453;52.052;20.430;2022-07-05T05:25:16;8.70;;;4.53;;
22573;SDS011;11453;52.052;20.430;2022-07-05T05:30:12;16.45;;;5.15;;
22573;SDS011;11453;52.052;20.430;2022-07-05T05:32:38;15.93;;;4.97;;
22573;SDS011;11453;52.052;20.430;2022-07-05T05:35:04;12.88;;;5.00;;
22573;SDS011;11453;52.052;20.430;2022-07-05T05:37:31;9.43;;;3.92;;
22573;SDS011;11453;52.052;20.430;2022-07-05T05:40:09;8.23;;;5.07;;
22573;SDS011;11453;52.052;20.430;2022-07-05T05:42:35;11.57;;;4.68;;
22573;SDS011;11453;52.052;20.430;2022-07-05T05:45:01;13.85;;;4.70;;
22573;SDS011;11453;52.052;20.430;2022-07-05T05:47:27;14.93;;;5.85;;
22573;SDS011;11453;52.052;20.430;2022-07-05T05:49:52;11.77;;;4.97;;
22573;SDS011;11453;52.052;20.430;2022-07-05T05:52:18;8.80;;;5.03;;
22573;SDS011;11453;52.052;20.430;2022-07-05T05:54:43;7.82;;;4.07;;
22573;SDS011;11453;52.052;20.430;2022-07-05T05:57:09;8.60;;;3.88;;
22573;SDS011;11453;52.052;20.430;2022-07-05T05:59:34;7.78;;;4.65;;
22573;SDS011;11453;52.052;20.430;2022-07-05T06:02:00;8.45;;;4.78;;
22573;SDS011;11453;52.052;20.430;2022-07-05T06:04:26;7.85;;;3.92;;
22573;SDS011;11453;52.052;20.430;2022-07-05T06:06:51;11.30;;;4.35;;
22573;SDS011;11453;52.052;20.430;2022-07-05T06:09:17;13.95;;;4.63;;
22573;SDS011;11453;52.052;20.430;2022-07-05T06:11:42;8.93;;;4.43;;
22573;SDS011;11453;52.052;20.430;2022-07-05T06:14:08;13.45;;;4.78;;
22573;SDS011;11453;52.052;20.430;2022-07-05T06:16:34;11.98;;;4.70;;
22573;SDS011;11453;52.052;20.430;2022-07-05T06:18:59;12.20;;;4.70;;
22573;SDS011;11453;52.052;20.430;2022-07-05T06:21:25;9.45;;;3.97;;
22573;SDS011;11453;52.052;20.430;2022-07-05T06:23:51;8.68;;;4.70;;
22573;SDS011;11453;52.052;20.430;2022-07-05T06:26:16;9.57;;;4.65;;
22573;SDS011;11453;52.052;20.430;2022-07-05T06:28:42;10.48;;;4.40;;
22573;SDS011;11453;52.052;20.430;2022-07-05T06:31:07;7.55;;;4.20;;
22573;SDS011;11453;52.052;20.430;2022-07-05T06:33:33;7.90;;;4.30;;
22573;SDS011;11453;52.052;20.430;2022-07-05T06:35:59;9.98;;;4.80;;
22573;SDS011;11453;52.052;20.430;2022-07-05T06:38:24;9.55;;;4.10;;
22573;SDS011;11453;52.052;20.430;2022-07-05T06:40:50;6.88;;;4.00;;
22573;SDS011;11453;52.052;20.430;2022-07-05T06:43:16;7.63;;;5.20;;
22573;SDS011;11453;52.052;20.430;2022-07-05T06:45:41;11.52;;;5.28;;
22573;SDS011;11453;52.052;20.430;2022-07-05T06:48:08;8.35;;;4.50;;
22573;SDS011;11453;52.052;20.430;2022-07-05T06:50:35;9.80;;;4.85;;
22573;SDS011;11453;52.052;20.430;2022-07-05T06:53:03;9.20;;;4.63;;
22573;SDS011;11453;52.052;20.430;2022-07-05T06:55:29;11.23;;;4.65;;
22573;SDS011;11453;52.052;20.430;2022-07-05T06:58:06;9.63;;;4.65;;
22573;SDS011;11453;52.052;20.430;2022-07-05T07:00:32;9.25;;;4.38;;
22573;SDS011;11453;52.052;20.430;2022-07-05T07:02:58;9.77;;;4.15;;
22573;SDS011;11453;52.052;20.430;2022-07-05T07:05:24;7.50;;;3.92;;
22573;SDS011;11453;52.052;20.430;2022-07-05T07:07:50;10.10;;;5.57;;
22573;SDS011;11453;52.052;20.430;2022-07-05T07:10:35;9.88;;;5.38;;
22573;SDS011;11453;52.052;20.430;2022-07-05T07:13:01;12.70;;;7.22;;
22573;SDS011;11453;52.052;20.430;2022-07-05T07:15:27;11.98;;;5.65;;
22573;SDS011;11453;52.052;20.430;2022-07-05T07:17:54;10.68;;;5.15;;
22573;SDS011;11453;52.052;20.430;2022-07-05T07:20:19;12.80;;;5.60;;
22573;SDS011;11453;52.052;20.430;2022-07-05T07:22:45;11.52;;;4.88;;
22573;SDS011;11453;52.052;20.430;2022-07-05T07:25:11;9.50;;;5.55;;
22573;SDS011;11453;52.052;20.430;2022-07-05T07:27:52;10.55;;;4.88;;
22573;SDS011;11453;52.052;20.430;2022-07-05T07:32:46;11.35;;;4.65;;
22573;SDS011;11453;52.052;20.430;2022-07-05T07:35:12;9.85;;;4.93;;
22573;SDS011;11453;52.052;20.430;2022-07-05T07:37:38;5.30;;;4.20;;
22573;SDS011;11453;52.052;20.430;2022-07-05T07:40:04;7.90;;;4.53;;
22573;SDS011;11453;52.052;20.430;2022-07-05T07:42:31;8.77;;;4.32;;
22573;SDS011;11453;52.052;20.430;2022-07-05T07:44:57;12.10;;;5.78;;
22573;SDS011;11453;52.052;20.430;2022-07-05T07:47:23;9.88;;;4.70;;
22573;SDS011;11453;52.052;20.430;2022-07-05T07:49:48;10.85;;;4.50;;
22573;SDS011;11453;52.052;20.430;2022-07-05T07:52:14;11.20;;;4.78;;
22573;SDS011;11453;52.052;20.430;2022-07-05T07:54:40;17.55;;;5.20;;
22573;SDS011;11453;52.052;20.430;2022-07-05T07:57:06;11.70;;;4.85;;
22573;SDS011;11453;52.052;20.430;2022-07-05T07:59:32;11.23;;;4.53;;
22573;SDS011;11453;52.052;20.430;2022-07-05T08:01:57;11.30;;;4.80;;
22573;SDS011;11453;52.052;20.430;2022-07-05T08:04:23;11.90;;;5.50;;
22573;SDS011;11453;52.052;20.430;2022-07-05T08:06:49;10.93;;;4.43;;
22573;SDS011;11453;52.052;20.430;2022-07-05T08:09:14;9.48;;;3.85;;
22573;SDS011;11453;52.052;20.430;2022-07-05T08:11:40;8.27;;;4.65;;
22573;SDS011;11453;52.052;20.430;2022-07-05T08:14:06;7.10;;;4.20;;
22573;SDS011;11453;52.052;20.430;2022-07-05T08:16:32;11.05;;;4.75;;
22573;SDS011;11453;52.052;20.430;2022-07-05T08:18:58;11.32;;;5.35;;
22573;SDS011;11453;52.052;20.430;2022-07-05T08:21:43;8.68;;;4.95;;
22573;SDS011;11453;52.052;20.430;2022-07-05T08:24:13;22.83;;;5.10;;
22573;SDS011;11453;52.052;20.430;2022-07-05T08:26:39;29.48;;;6.50;;
22573;SDS011;11453;52.052;20.430;2022-07-05T08:29:06;19.40;;;6.45;;
22573;SDS011;11453;52.052;20.430;2022-07-05T08:31:34;17.15;;;5.78;;
22573;SDS011;11453;52.052;20.430;2022-07-05T08:34:03;9.38;;;4.43;;
22573;SDS011;11453;52.052;20.430;2022-07-05T08:36:29;10.27;;;4.60;;
22573;SDS011;11453;52.052;20.430;2022-07-05T08:38:55;6.60;;;4.60;;
22573;SDS011;11453;52.052;20.430;2022-07-05T08:41:21;13.60;;;5.28;;
22573;SDS011;11453;52.052;20.430;2022-07-05T08:43:48;9.25;;;4.80;;
22573;SDS011;11453;52.052;20.430;2022-07-05T08:46:15;9.95;;;5.05;;
22573;SDS011;11453;52.052;20.430;2022-07-05T08:48:42;9.27;;;4.75;;
22573;SDS011;11453;52.052;20.430;2022-07-05T08:51:12;10.32;;;5.03;;
22573;SDS011;11453;52.052;20.430;2022-07-05T08:53:40;9.38;;;4.65;;
22573;SDS011;11453;52.052;20.430;2022-07-05T08:56:07;12.02;;;5.07;;
22573;SDS011;11453;52.052;20.430;2022-07-05T08:58:34;18.88;;;6.07;;
22573;SDS011;11453;52.052;20.430;2022-07-05T09:01:00;14.27;;;5.47;;
22573;SDS011;11453;52.052;20.430;2022-07-05T09:03:31;10.88;;;4.93;;
22573;SDS011;11453;52.052;20.430;2022-07-05T09:06:01;10.95;;;5.15;;
22573;SDS011;11453;52.052;20.430;2022-07-05T09:08:32;7.88;;;4.50;;
22573;SDS011;11453;52.052;20.430;2022-07-05T09:11:04;10.82;;;4.57;;
22573;SDS011;11453;52.052;20.430;2022-07-05T09:13:34;12.80;;;5.53;;
22573;SDS011;11453;52.052;20.430;2022-07-05T09:16:01;12.43;;;5.20;;
22573;SDS011;11453;52.052;20.430;2022-07-05T09:18:44;8.73;;;4.32;;
22573;SDS011;11453;52.052;20.430;2022-07-05T09:21:21;10.45;;;4.63;;
22573;SDS011;11453;52.052;20.430;2022-07-05T09:24:09;14.15;;;4.93;;
22573;SDS011;11453;52.052;20.430;2022-07-05T09:29:15;7.68;;;4.10;;
22573;SDS011;11453;52.052;20.430;2022-07-05T09:31:44;8.80;;;4.20;;
22573;SDS011;11453;52.052;20.430;2022-07-05T09:34:12;9.68;;;4.22;;
22573;SDS011;11453;52.052;20.430;2022-07-05T09:39:14;7.90;;;4.38;;
22573;SDS011;11453;52.052;20.430;2022-07-05T09:41:40;8.00;;;4.28;;
22573;SDS011;11453;52.052;20.430;2022-07-05T09:44:05;7.10;;;4.00;;
22573;SDS011;11453;52.052;20.430;2022-07-05T09:46:32;8.90;;;4.13;;
22573;SDS011;11453;52.052;20.430;2022-07-05T09:48:58;8.10;;;3.80;;
22573;SDS011;11453;52.052;20.430;2022-07-05T09:51:25;6.53;;;4.00;;
22573;SDS011;11453;52.052;20.430;2022-07-05T09:53:52;5.88;;;3.70;;
22573;SDS011;11453;52.052;20.430;2022-07-05T09:56:20;9.00;;;3.85;;
22573;SDS011;11453;52.052;20.430;2022-07-05T09:58:46;7.78;;;4.05;;
22573;SDS011;11453;52.052;20.430;2022-07-05T10:01:28;6.75;;;4.03;;
22573;SDS011;11453;52.052;20.430;2022-07-05T10:06:23;6.93;;;3.53;;
22573;SDS011;11453;52.052;20.430;2022-07-05T10:08:50;7.85;;;3.60;;
22573;SDS011;11453;52.052;20.430;2022-07-05T10:11:17;6.68;;;3.70;;
22573;SDS011;11453;52.052;20.430;2022-07-05T10:13:44;5.95;;;3.75;;
22573;SDS011;11453;52.052;20.430;2022-07-05T10:16:17;9.07;;;6.07;;
22573;SDS011;11453;52.052;20.430;2022-07-05T10:18:45;8.25;;;5.40;;
22573;SDS011;11453;52.052;20.430;2022-07-05T10:21:12;7.32;;;4.38;;
22573;SDS011;11453;52.052;20.430;2022-07-05T10:23:42;19.17;;;7.45;;
22573;SDS011;11453;52.052;20.430;2022-07-05T10:26:19;8.43;;;3.83;;
22573;SDS011;11453;52.052;20.430;2022-07-05T10:28:46;10.02;;;4.53;;
22573;SDS011;11453;52.052;20.430;2022-07-05T10:31:15;11.75;;;5.93;;
22573;SDS011;11453;52.052;20.430;2022-07-05T10:33:41;11.98;;;5.45;;
22573;SDS011;11453;52.052;20.430;2022-07-05T10:36:09;9.30;;;4.78;;
22573;SDS011;11453;52.052;20.430;2022-07-05T10:38:36;7.60;;;3.72;;
22573;SDS011;11453;52.052;20.430;2022-07-05T10:41:04;9.18;;;5.18;;
22573;SDS011;11453;52.052;20.430;2022-07-05T10:43:32;7.90;;;3.92;;
22573;SDS011;11453;52.052;20.430;2022-07-05T10:45:58;11.95;;;7.05;;
22573;SDS011;11453;52.052;20.430;2022-07-05T10:48:25;9.63;;;3.92;;
22573;SDS011;11453;52.052;20.430;2022-07-05T10:53:28;10.13;;;7.00;;
22573;SDS011;11453;52.052;20.430;2022-07-05T10:56:13;9.80;;;6.45;;
22573;SDS011;11453;52.052;20.430;2022-07-05T11:06:20;6.63;;;3.25;;
22573;SDS011;11453;52.052;20.430;2022-07-05T11:11:37;5.57;;;3.65;;
22573;SDS011;11453;52.052;20.430;2022-07-05T11:16:44;12.18;;;6.55;;
22573;SDS011;11453;52.052;20.430;2022-07-05T11:19:11;7.25;;;4.57;;
22573;SDS011;11453;52.052;20.430;2022-07-05T11:21:38;6.22;;;3.80;;
22573;SDS011;11453;52.052;20.430;2022-07-05T11:24:29;9.52;;;5.18;;
22573;SDS011;11453;52.052;20.430;2022-07-05T11:26:57;7.47;;;4.32;;
22573;SDS011;11453;52.052;20.430;2022-07-05T11:32:09;6.20;;;3.47;;
22573;SDS011;11453;52.052;20.430;2022-07-05T11:34:36;8.30;;;3.28;;
22573;SDS011;11453;52.052;20.430;2022-07-05T11:40:44;6.97;;;3.70;;
22573;SDS011;11453;52.052;20.430;2022-07-05T11:42:45;6.95;;;3.30;;
22573;SDS011;11453;52.052;20.430;2022-07-05T11:45:12;7.00;;;3.80;;
22573;SDS011;11453;52.052;20.430;2022-07-05T11:47:39;7.13;;;3.30;;
22573;SDS011;11453;52.052;20.430;2022-07-05T11:50:05;4.68;;;2.63;;
22573;SDS011;11453;52.052;20.430;2022-07-05T11:52:32;8.60;;;3.35;;
22573;SDS011;11453;52.052;20.430;2022-07-05T11:55:00;5.82;;;2.95;;
22573;SDS011;11453;52.052;20.430;2022-07-05T11:57:28;6.75;;;3.40;;
22573;SDS011;11453;52.052;20.430;2022-07-05T11:59:54;7.78;;;3.33;;
22573;SDS011;11453;52.052;20.430;2022-07-05T12:02:20;7.65;;;5.07;;
22573;SDS011;11453;52.052;20.430;2022-07-05T12:04:49;5.85;;;2.90;;
22573;SDS011;11453;52.052;20.430;2022-07-05T12:09:52;7.10;;;2.83;;
22573;SDS011;11453;52.052;20.430;2022-07-05T12:12:36;6.50;;;3.47;;
22573;SDS011;11453;52.052;20.430;2022-07-05T12:15:08;4.60;;;2.83;;
22573;SDS011;11453;52.052;20.430;2022-07-05T12:17:38;5.03;;;2.47;;
22573;SDS011;11453;52.052;20.430;2022-07-05T12:20:05;8.45;;;2.97;;
22573;SDS011;11453;52.052;20.430;2022-07-05T12:22:33;7.13;;;2.78;;
22573;SDS011;11453;52.052;20.430;2022-07-05T12:25:03;7.85;;;3.10;;
22573;SDS011;11453;52.052;20.430;2022-07-05T12:27:33;8.93;;;2.70;;
22573;SDS011;11453;52.052;20.430;2022-07-05T12:30:00;6.75;;;2.47;;
22573;SDS011;11453;52.052;20.430;2022-07-05T12:32:28;6.68;;;2.67;;
22573;SDS011;11453;52.052;20.430;2022-07-05T12:34:57;6.47;;;2.70;;
22573;SDS011;11453;52.052;20.430;2022-07-05T12:37:24;4.90;;;2.70;;
22573;SDS011;11453;52.052;20.430;2022-07-05T12:40:05;6.75;;;2.63;;
22573;SDS011;11453;52.052;20.430;2022-07-05T12:42:32;8.23;;;3.33;;
22573;SDS011;11453;52.052;20.430;2022-07-05T12:45:09;6.18;;;2.80;;
22573;SDS011;11453;52.052;20.430;2022-07-05T12:47:51;6.50;;;2.60;;
22573;SDS011;11453;52.052;20.430;2022-07-05T12:50:27;5.28;;;2.28;;
22573;SDS011;11453;52.052;20.430;2022-07-05T12:53:05;4.53;;;2.78;;
22573;SDS011;11453;52.052;20.430;2022-07-05T12:55:59;10.32;;;2.60;;
22573;SDS011;11453;52.052;20.430;2022-07-05T12:59:02;6.10;;;2.55;;
22573;SDS011;11453;52.052;20.430;2022-07-05T13:01:29;7.25;;;2.70;;
22573;SDS011;11453;52.052;20.430;2022-07-05T13:14:46;3.27;;;2.33;;
22573;SDS011;11453;52.052;20.430;2022-07-05T13:17:14;5.78;;;2.63;;
22573;SDS011;11453;52.052;20.430;2022-07-05T13:19:48;5.80;;;2.20;;
22573;SDS011;11453;52.052;20.430;2022-07-05T13:22:15;6.05;;;2.60;;
22573;SDS011;11453;52.052;20.430;2022-07-05T13:24:41;7.72;;;2.80;;
22573;SDS011;11453;52.052;20.430;2022-07-05T13:27:08;8.00;;;2.10;;
22573;SDS011;11453;52.052;20.430;2022-07-05T13:29:35;6.55;;;3.40;;
22573;SDS011;11453;52.052;20.430;2022-07-05T13:32:01;6.93;;;2.60;;
22573;SDS011;11453;52.052;20.430;2022-07-05T13:34:27;6.13;;;2.80;;
22573;SDS011;11453;52.052;20.430;2022-07-05T13:36:54;6.97;;;2.40;;
22573;SDS011;11453;52.052;20.430;2022-07-05T13:39:20;9.52;;;3.15;;
22573;SDS011;11453;52.052;20.430;2022-07-05T13:41:48;4.72;;;2.30;;
22573;SDS011;11453;52.052;20.430;2022-07-05T13:44:15;6.32;;;2.45;;
22573;SDS011;11453;52.052;20.430;2022-07-05T13:46:41;5.55;;;2.80;;
22573;SDS011;11453;52.052;20.430;2022-07-05T13:49:07;7.72;;;2.80;;
22573;SDS011;11453;52.052;20.430;2022-07-05T13:51:33;5.22;;;3.08;;
22573;SDS011;11453;52.052;20.430;2022-07-05T13:53:59;8.90;;;2.58;;
22573;SDS011;11453;52.052;20.430;2022-07-05T13:56:24;7.03;;;2.83;;
22573;SDS011;11453;52.052;20.430;2022-07-05T13:58:52;7.45;;;3.00;;
22573;SDS011;11453;52.052;20.430;2022-07-05T14:01:18;7.07;;;2.88;;
22573;SDS011;11453;52.052;20.430;2022-07-05T14:03:47;5.70;;;3.40;;
22573;SDS011;11453;52.052;20.430;2022-07-05T14:06:12;7.63;;;3.35;;
22573;SDS011;11453;52.052;20.430;2022-07-05T14:08:38;6.82;;;3.40;;
22573;SDS011;11453;52.052;20.430;2022-07-05T14:11:04;6.10;;;3.50;;
22573;SDS011;11453;52.052;20.430;2022-07-05T14:13:30;8.10;;;3.72;;
22573;SDS011;11453;52.052;20.430;2022-07-05T14:15:55;8.95;;;4.03;;
22573;SDS011;11453;52.052;20.430;2022-07-05T14:18:22;9.25;;;4.10;;
22573;SDS011;11453;52.052;20.430;2022-07-05T14:20:49;6.85;;;3.45;;
22573;SDS011;11453;52.052;20.430;2022-07-05T14:23:15;5.95;;;3.67;;
22573;SDS011;11453;52.052;20.430;2022-07-05T14:25:41;5.75;;;3.60;;
22573;SDS011;11453;52.052;20.430;2022-07-05T14:28:07;7.57;;;3.80;;
22573;SDS011;11453;52.052;20.430;2022-07-05T14:30:34;7.55;;;3.72;;
22573;SDS011;11453;52.052;20.430;2022-07-05T14:33:01;8.25;;;3.83;;
22573;SDS011;11453;52.052;20.430;2022-07-05T14:35:27;7.15;;;3.20;;
22573;SDS011;11453;52.052;20.430;2022-07-05T14:37:53;6.07;;;3.20;;
22573;SDS011;11453;52.052;20.430;2022-07-05T14:40:19;6.45;;;3.55;;
22573;SDS011;11453;52.052;20.430;2022-07-05T14:42:45;6.18;;;3.17;;
22573;SDS011;11453;52.052;20.430;2022-07-05T14:45:11;8.02;;;3.53;;
22573;SDS011;11453;52.052;20.430;2022-07-05T14:47:36;6.43;;;3.40;;
22573;SDS011;11453;52.052;20.430;2022-07-05T14:50:02;5.82;;;3.35;;
22573;SDS011;11453;52.052;20.430;2022-07-05T14:52:28;6.60;;;3.50;;
22573;SDS011;11453;52.052;20.430;2022-07-05T14:54:55;7.15;;;3.30;;
22573;SDS011;11453;52.052;20.430;2022-07-05T14:57:21;10.60;;;3.55;;
22573;SDS011;11453;52.052;20.430;2022-07-05T14:59:47;6.03;;;3.35;;
22573;SDS011;11453;52.052;20.430;2022-07-05T15:02:12;7.95;;;3.80;;
22573;SDS011;11453;52.052;20.430;2022-07-05T15:04:39;10.70;;;4.22;;
22573;SDS011;11453;52.052;20.430;2022-07-05T15:07:06;9.52;;;3.80;;
22573;SDS011;11453;52.052;20.430;2022-07-05T15:09:31;8.13;;;4.00;;
22573;SDS011;11453;52.052;20.430;2022-07-05T15:11:57;9.23;;;4.05;;
22573;SDS011;11453;52.052;20.430;2022-07-05T15:14:23;6.90;;;3.38;;